Time;durP1;ratioP1;P1;durP2;ratioP2;P2;SDS_P1;SDS_P2;PMS_P1;PMS_P2;Temp;Humidity;BMP_temperature;BMP_pressure;BME280_temperature;BME280_humidity;BME280_pressure;Samples;Min_cycle;Max_cycle;Signal;HPM_P1;HPM_P2
2023/04/01 00:00:59;;;;;;;10.60;9.10;;;;;;;10.40;100.00;94695.34;5092170;28;20286;-61
2023/04/01 00:03:26;;;;;;;17.03;9.77;;;;;;;10.40;100.00;90427.06;5091776;28;20629;-61
2023/04/01 00:05:54;;;;;;;13.63;9.63;;;;;;;10.39;100.00;89440.56;5092031;28;20653;-59
2023/04/01 00:08:21;;;;;;;12.63;9.90;;;;;;;10.33;100.00;85170.84;5092028;28;20678;-59
2023/04/01 00:10:48;;;;;;;13.63;9.93;;;;;;;10.40;100.00;82233.66;5091765;28;20771;-61
2023/04/01 00:13:17;;;;;;;10.93;10.00;;;;;;;10.41;100.00;79616.56;5091648;28;20180;-61
2023/04/01 00:15:44;;;;;;;10.27;9.10;;;;;;;10.43;100.00;80928.69;5091562;28;20306;-61
2023/04/01 00:18:12;;;;;;;17.37;8.87;;;;;;;10.42;100.00;83873.66;5092079;28;20229;-60
2023/04/01 00:20:39;;;;;;;13.03;9.43;;;;;;;10.47;100.00;86501.44;5091826;28;20185;-60
2023/04/01 00:23:06;;;;;;;13.27;9.17;;;;;;;10.39;100.00;90752.91;5091865;28;20187;-60
2023/04/01 00:25:34;;;;;;;9.70;8.83;;;;;;;10.39;100.00;94036.75;5091607;28;20308;-61
2023/04/01 00:28:01;;;;;;;12.17;9.70;;;;;;;10.19;100.00;91378.78;5091509;28;20192;-60
2023/04/01 00:30:29;;;;;;;9.73;8.97;;;;;;;10.38;100.00;83867.19;5091685;28;20206;-62
2023/04/01 00:32:56;;;;;;;10.00;9.30;;;;;;;10.37;100.00;78303.69;5091432;28;20241;-60
2023/04/01 00:35:23;;;;;;;11.07;10.03;;;;;;;10.41;100.00;80598.00;5091338;28;20286;-60
2023/04/01 00:37:50;;;;;;;14.70;9.53;;;;;;;10.31;100.00;82548.28;5091280;28;20271;-61
2023/04/01 00:40:26;;;;;;;10.97;9.90;;;;;;;10.43;100.00;86824.06;5091473;28;20334;-60
2023/04/01 00:42:53;;;;;;;15.00;10.23;;;;;;;10.41;100.00;86821.06;5091613;28;20301;-60
2023/04/01 00:45:40;;;;;;;16.57;9.97;;;;;;;10.30;100.00;91067.06;5094223;28;20289;-60
2023/04/01 00:48:11;;;;;;;15.53;9.67;;;;;;;10.22;100.00;94337.03;5095254;28;20278;-60
2023/04/01 00:50:41;;;;;;;20.23;15.40;;;;;;;10.04;100.00;88076.69;5095270;28;20271;-60
2023/04/01 00:53:09;;;;;;;15.40;13.80;;;;;;;10.07;100.00;77283.13;5095246;28;20192;-60
2023/04/01 00:55:44;;;;;;;15.70;14.03;;;;;;;10.12;100.00;67501.31;5095460;28;20299;-60
2023/04/01 00:58:16;;;;;;;20.30;14.77;;;;;;;10.12;100.00;64244.94;5095147;28;20184;-60
2023/04/01 01:00:49;;;;;;;29.43;16.47;;;;;;;9.85;100.00;65191.69;5095402;28;20245;-62
2023/04/01 01:03:16;;;;;;;30.87;20.07;;;;;;;9.98;100.00;63904.56;5094926;28;20184;-60
2023/04/01 01:06:04;;;;;;;20.23;15.90;;;;;;;9.89;100.00;63895.19;5095284;28;20696;-60
2023/04/01 01:08:46;;;;;;;13.20;11.73;;;;;;;9.92;100.00;68130.66;5094931;28;20343;-60
2023/04/01 01:11:19;;;;;;;17.33;14.27;;;;;;;9.82;100.00;73985.88;5094823;28;20322;-60
2023/04/01 01:13:57;;;;;;;18.37;12.73;;;;;;;9.73;100.00;70714.53;5094802;28;20223;-59
2023/04/01 01:16:30;;;;;;;17.80;13.50;;;;;;;9.63;100.00;68422.78;5094662;28;20295;-60
2023/04/01 01:19:09;;;;;;;17.13;12.53;;;;;;;9.56;100.00;64509.13;5095273;28;20553;-61
2023/04/01 01:22:03;;;;;;;23.00;12.93;;;;;;;9.43;100.00;65145.00;5094672;28;20184;-60
2023/04/01 01:24:44;;;;;;;21.33;14.10;;;;;;;9.32;100.00;57013.63;5094833;28;20200;-61
2023/04/01 01:27:13;;;;;;;24.57;19.23;;;;;;;9.22;100.00;53438.09;5094935;28;20710;-59
2023/04/01 01:30:26;;;;;;;34.53;17.30;;;;;;;9.15;100.00;45666.34;5094761;28;20553;-59
2023/04/01 01:33:18;;;;;;;33.97;21.87;;;;;;;8.96;100.00;39195.69;5094745;28;20227;-60
2023/04/01 01:35:50;;;;;;;33.03;20.60;;;;;;;8.90;100.00;34679.94;5094449;28;20388;-61
2023/04/01 01:38:19;;;;;;;28.30;22.57;;;;;;;8.87;100.00;27923.25;5094416;28;20219;-59
2023/04/01 01:40:51;;;;;;;24.57;21.77;;;;;;;8.82;100.00;24067.06;5094293;28;20219;-61
2023/04/01 01:43:23;;;;;;;29.60;22.30;;;;;;;8.79;100.00;21178.34;5094650;28;20650;-60
2023/04/01 01:45:56;;;;;;;33.07;21.87;;;;;;;8.88;100.00;21181.94;5094616;28;20645;-60
2023/04/01 01:48:25;;;;;;;30.30;21.70;;;;;;;9.10;100.00;23758.22;5094609;28;20206;-61
2023/04/01 01:50:54;;;;;;;27.40;19.87;;;;;;;8.99;100.00;25680.00;5094496;28;20184;-60
2023/04/01 01:53:22;;;;;;;29.80;20.23;;;;;;;9.10;100.00;29864.34;5094071;28;20241;-60
2023/04/01 01:55:49;;;;;;;40.53;21.27;;;;;;;8.92;100.00;33715.56;5093729;28;20212;-61
2023/04/01 01:58:21;;;;;;;31.77;19.80;;;;;;;8.86;100.00;38543.59;5094384;28;20599;-60
2023/04/01 02:00:53;;;;;;;30.77;19.67;;;;;;;8.87;100.00;41124.56;5094080;28;20184;-61
2023/04/01 02:03:24;;;;;;;35.30;20.80;;;;;;;8.68;100.00;40788.28;5094330;28;20219;-58
2023/04/01 02:05:54;;;;;;;31.20;19.03;;;;;;;8.61;100.00;42395.84;5094035;28;20266;-61
2023/04/01 02:08:26;;;;;;;24.57;18.17;;;;;;;8.21;100.00;35281.44;5094268;28;20275;-60
2023/04/01 02:10:58;;;;;;;23.63;17.50;;;;;;;8.27;100.00;33676.56;5094131;28;20235;-60
2023/04/01 02:13:31;;;;;;;25.23;17.97;;;;;;;8.29;100.00;26610.03;5094177;28;20188;-59
2023/04/01 02:16:04;;;;;;;20.23;16.43;;;;;;;8.40;100.00;24048.56;5093868;28;20230;-60
2023/04/01 02:18:35;;;;;;;26.23;18.80;;;;;;;8.51;100.00;21488.13;5094190;28;20191;-61
2023/04/01 02:21:06;;;;;;;20.60;18.50;;;;;;;8.58;100.00;20208.88;5093643;28;20191;-62
2023/04/01 02:23:36;;;;;;;25.20;18.03;;;;;;;8.70;100.00;18931.63;5092660;28;20654;-61
2023/04/01 02:26:07;;;;;;;21.30;16.93;;;;;;;8.67;100.00;22456.59;5093340;28;20279;-59
2023/04/01 02:28:35;;;;;;;20.93;16.63;;;;;;;8.55;100.00;26943.78;5093822;28;20594;-59
2023/04/01 02:31:03;;;;;;;24.83;16.87;;;;;;;8.58;100.00;27908.72;5093659;28;20184;-60
2023/04/01 02:33:31;;;;;;;19.10;15.10;;;;;;;8.76;100.00;26953.66;5093387;28;20212;-60
2023/04/01 02:36:00;;;;;;;27.57;16.47;;;;;;;8.72;100.00;29200.94;5093235;28;20224;-61
2023/04/01 02:38:28;;;;;;;30.17;17.83;;;;;;;8.73;100.00;31452.00;5093214;28;20180;-60
2023/04/01 02:41:00;;;;;;;31.37;16.17;;;;;;;8.62;100.00;37883.09;5093409;28;20275;-60
2023/04/01 02:43:27;;;;;;;23.30;15.77;;;;;;;8.62;100.00;44656.00;5093409;28;20647;-59
2023/04/01 02:45:54;;;;;;;24.50;16.77;;;;;;;8.59;100.00;49176.06;5093388;28;20689;-60
2023/04/01 02:48:21;;;;;;;31.73;15.80;;;;;;;8.42;100.00;52071.06;5093506;28;20544;-60
2023/04/01 02:50:48;;;;;;;30.80;16.03;;;;;;;8.38;100.00;53684.88;5093110;28;20191;-60
2023/04/01 02:53:16;;;;;;;27.30;17.23;;;;;;;8.30;100.00;46244.56;5092939;28;20188;-60
2023/04/01 02:55:45;;;;;;;23.93;16.33;;;;;;;8.37;100.00;40121.69;5093194;28;20675;-61
2023/04/01 02:58:12;;;;;;;28.80;17.77;;;;;;;8.38;100.00;36257.41;5092808;28;20204;-60
2023/04/01 03:00:39;;;;;;;28.00;17.10;;;;;;;8.38;100.00;31753.88;5093068;28;20189;-61
2023/04/01 03:03:06;;;;;;;23.07;18.57;;;;;;;8.48;100.00;27582.50;5092864;28;20192;-60
2023/04/01 03:05:33;;;;;;;28.70;17.00;;;;;;;8.58;100.00;22773.50;5092702;28;20188;-61
2023/04/01 03:08:00;;;;;;;29.40;18.07;;;;;;;8.62;100.00;24379.22;5091832;28;20275;-60
2023/04/01 03:10:28;;;;;;;25.23;17.27;;;;;;;8.56;100.00;26623.22;5092396;28;20229;-60
2023/04/01 03:12:56;;;;;;;29.47;19.00;;;;;;;8.64;100.00;28233.03;5092554;28;20291;-59
2023/04/01 03:15:23;;;;;;;18.40;16.00;;;;;;;8.66;100.00;28555.09;5092805;28;20242;-60
2023/04/01 03:17:51;;;;;;;21.67;15.90;;;;;;;8.62;100.00;29838.38;5092498;28;20310;-60
2023/04/01 03:20:19;;;;;;;24.57;17.80;;;;;;;8.63;100.00;29839.19;5092403;28;20191;-60
2023/04/01 03:22:46;;;;;;;22.27;16.77;;;;;;;8.66;100.00;29198.00;5092785;28;20620;-60
2023/04/01 03:25:14;;;;;;;19.47;16.30;;;;;;;8.57;100.00;29835.94;5092352;28;20192;-60
2023/04/01 03:27:41;;;;;;;24.83;16.07;;;;;;;8.49;100.00;28546.50;5092634;28;20177;-61
2023/04/01 03:30:10;;;;;;;26.03;17.80;;;;;;;8.44;100.00;25654.50;5092501;28;20184;-60
2023/04/01 03:32:37;;;;;;;26.20;15.73;;;;;;;8.45;100.00;20844.75;5092467;28;20261;-60
2023/04/01 03:35:05;;;;;;;29.23;17.83;;;;;;;8.58;100.00;18607.00;5092128;28;20216;-60
2023/04/01 03:37:33;;;;;;;18.67;16.50;;;;;;;8.60;100.00;17966.97;5092086;28;20264;-61
2023/04/01 03:40:00;;;;;;;20.70;15.90;;;;;;;8.54;100.00;16684.28;5092120;28;20184;-61
2023/04/01 03:42:31;;;;;;;30.93;17.60;;;;;;;8.79;100.00;16051.84;5092367;28;20224;-60
2023/04/01 03:44:58;;;;;;;27.77;15.93;;;;;;;8.80;100.00;16692.56;5092381;28;20191;-61
2023/04/01 03:47:26;;;;;;;28.20;17.60;;;;;;;8.71;100.00;17970.94;5092310;28;20601;-60
2023/04/01 03:49:54;;;;;;;24.77;19.03;;;;;;;8.95;100.00;17658.47;5091907;28;20249;-60
2023/04/01 03:52:21;;;;;;;31.20;23.60;;;;;;;9.02;100.00;17340.44;5091837;28;20266;-60
2023/04/01 03:54:48;;;;;;;36.00;25.27;;;;;;;9.02;100.00;16699.69;5091953;28;20270;-61
2023/04/01 03:57:15;;;;;;;33.83;22.87;;;;;;;9.20;100.00;15744.38;5091773;28;20204;-60
2023/04/01 03:59:42;;;;;;;28.63;21.37;;;;;;;9.15;100.00;18947.72;5092025;28;20275;-61
2023/04/01 04:02:10;;;;;;;42.47;17.43;;;;;;;9.02;100.00;24397.03;5091994;28;20695;-60
2023/04/01 04:04:38;;;;;;;45.60;17.27;;;;;;;8.87;100.00;28244.34;5091685;28;20275;-60
2023/04/01 04:07:05;;;;;;;44.87;17.50;;;;;;;8.69;100.00;28556.91;5091661;28;20227;-59
2023/04/01 04:09:33;;;;;;;34.90;21.67;;;;;;;8.82;100.00;25993.31;5092022;28;20698;-60
2023/04/01 04:12:00;;;;;;;38.60;19.77;;;;;;;8.76;100.00;22459.97;5091455;28;20310;-59
2023/04/01 04:14:27;;;;;;;37.20;19.47;;;;;;;8.73;100.00;18932.38;5091555;28;20185;-59
2023/04/01 04:16:54;;;;;;;30.20;21.60;;;;;;;8.51;100.00;13803.88;5091599;28;20761;-60
2023/04/01 04:19:21;;;;;;;33.10;22.10;;;;;;;8.43;100.00;9647.56;5095252;28;20275;-60
2023/04/01 04:21:50;;;;;;;33.57;20.20;;;;;;;8.77;100.00;12251.66;5098352;28;20259;-59
2023/04/01 04:24:17;;;;;;;40.70;21.07;;;;;;;8.98;100.00;15002.13;5098346;28;20397;-59
2023/04/01 04:26:44;;;;;;;27.90;21.37;;;;;;;9.22;100.00;15357.09;5098629;28;20665;-60
2023/04/01 04:29:11;;;;;;;28.87;20.13;;;;;;;9.56;100.00;14398.53;5098717;28;20599;-60
2023/04/01 04:31:38;;;;;;;43.30;20.37;;;;;;;9.61;100.00;16864.00;5098215;28;20262;-60
2023/04/01 04:34:05;;;;;;;34.50;18.37;;;;;;;9.87;100.00;24756.53;5098239;28;20220;-61
2023/04/01 04:36:32;;;;;;;32.60;17.27;;;;;;;10.27;100.00;31215.97;5098055;28;20223;-61
2023/04/01 04:39:03;;;;;;;32.97;16.33;;;;;;;10.57;100.00;44807.00;5098437;28;20686;-61
2023/04/01 04:41:30;;;;;;;26.37;15.43;;;;;;;10.99;100.00;58153.53;5098609;28;20180;-61
2023/04/01 04:43:58;;;;;;;17.90;12.80;;;;;;;11.31;100.00;65355.03;5098074;28;20191;-60
2023/04/01 04:46:26;;;;;;;45.83;16.53;;;;;;;11.52;100.00;72891.94;5098145;28;20566;-61
2023/04/01 04:48:53;;;;;;;59.87;18.63;;;;;;;11.72;100.00;83401.25;5098486;28;20553;-60
2023/04/01 04:51:21;;;;;;;75.77;21.47;;;;;;;12.04;100.00;99572.56;5098490;28;20570;-61
2023/04/01 04:53:48;;;;;;;78.67;18.90;;;;;;;12.19;100.00;138188.88;5097343;28;20278;-60
2023/04/01 04:56:20;;;;;;;120.10;22.53;;;;;;;12.54;100.00;149191.75;5098476;28;20647;-60
2023/04/01 04:58:48;;;;;;;85.63;20.17;;;;;;;13.30;100.00;149381.75;5098038;28;20208;-60
2023/04/01 05:01:16;;;;;;;79.33;20.03;;;;;;;13.76;100.00;149495.75;5098425;28;20196;-61
2023/04/01 05:03:43;;;;;;;75.43;18.90;;;;;;;14.04;100.00;149568.03;5098475;28;20562;-60
2023/04/01 05:06:13;;;;;;;77.97;18.97;;;;;;;13.45;100.00;149418.50;5098343;28;20192;-60
2023/04/01 05:08:40;;;;;;;125.37;24.97;;;;;;;13.17;100.00;149348.81;5098560;28;20559;-61
2023/04/01 05:11:10;;;;;;;38.73;14.90;;;;;;;13.00;100.00;149306.97;5098121;28;20774;-60
2023/04/01 05:13:39;;;;;;;28.67;13.00;;;;;;;12.91;100.00;149284.16;5097904;28;20211;-60
2023/04/01 05:16:09;;;;;;;84.00;20.80;;;;;;;12.91;100.00;149284.16;5097837;28;20291;-59
2023/04/01 05:18:36;;;;;;;90.10;26.07;;;;;;;12.82;100.00;149261.34;5097810;28;20657;-60
2023/04/01 05:21:04;;;;;;;53.80;20.90;;;;;;;12.63;100.00;149214.53;5098400;28;20184;-61
2023/04/01 05:23:32;;;;;;;47.90;21.13;;;;;;;12.51;100.00;149184.16;5097722;28;20188;-61
2023/04/01 05:26:03;;;;;;;40.03;21.30;;;;;;;12.47;100.00;149174.03;5097707;28;20215;-59
2023/04/01 05:28:30;;;;;;;59.30;23.03;;;;;;;12.56;100.00;149195.56;5098029;28;20239;-60
2023/04/01 05:31:01;;;;;;;39.83;17.83;;;;;;;12.46;100.00;149170.22;5094666;28;20288;-60
2023/04/01 05:33:29;;;;;;;39.50;18.33;;;;;;;12.38;100.00;149149.97;5094513;28;20223;-60
2023/04/01 05:35:57;;;;;;;14.30;10.73;;;;;;;12.47;100.00;149172.75;5094773;28;20673;-60
2023/04/01 05:38:24;;;;;;;18.00;9.70;;;;;;;12.59;100.00;149204.41;5094683;28;20290;-61
2023/04/01 05:40:51;;;;;;;16.13;9.47;;;;;;;12.88;100.00;149275.31;5094594;28;20266;-61
2023/04/01 05:43:18;;;;;;;9.10;6.93;;;;;;;12.96;100.00;149295.56;5094580;28;20219;-60
2023/04/01 05:45:45;;;;;;;55.63;17.20;;;;;;;13.43;100.00;149413.41;5094564;28;20713;-61
2023/04/01 05:48:15;;;;;;;36.17;16.13;;;;;;;13.63;100.00;149464.09;5094248;28;20242;-60
2023/04/01 05:50:42;;;;;;;31.60;11.53;;;;;;;13.96;100.00;149546.50;5092971;28;20219;-61
2023/04/01 05:53:09;;;;;;;42.03;13.93;;;;;;;14.47;100.00;149675.78;5094092;28;20195;-61
2023/04/01 05:55:36;;;;;;;130.87;25.57;;;;;;;14.96;100.00;149797.56;5094031;28;20220;-60
2023/04/01 05:58:04;;;;;;;115.87;30.43;;;;;;;15.68;100.00;149977.75;5093933;28;20211;-60
2023/04/01 06:00:31;;;;;;;88.30;28.57;;;;;;;16.15;100.00;150097.09;5093900;28;20184;-60
2023/04/01 06:03:00;;;;;;;106.90;26.30;;;;;;;16.69;100.00;150233.00;5094396;28;20590;-61
2023/04/01 06:05:30;;;;;;;120.37;29.10;;;;;;;16.92;100.00;150288.88;5094197;28;20651;-60
2023/04/01 06:08:00;;;;;;;97.10;30.80;;;;;;;16.82;100.00;150266.00;5094223;28;20719;-60
2023/04/01 06:10:39;;;;;;;32.20;15.60;;;;;;;16.29;100.00;150131.38;5093646;28;20231;-60
2023/04/01 06:13:13;;;;;;;24.90;13.70;;;;;;;15.92;100.00;150039.94;5092807;28;20270;-59
2023/04/01 06:15:48;;;;;;;34.80;13.50;;;;;;;15.83;100.00;150017.09;5093940;28;20674;-61
2023/04/01 06:18:46;;;;;;;28.00;11.40;;;;;;;15.82;100.00;150014.59;5094021;28;20704;-60
2023/04/01 06:21:35;;;;;;;30.13;11.40;;;;;;;15.93;100.00;150041.22;5093993;28;20787;-60
2023/04/01 06:24:17;;;;;;;11.37;9.37;;;;;;;15.93;100.00;150042.50;5093495;28;20188;-61
2023/04/01 06:26:55;;;;;;;24.80;10.07;;;;;;;15.60;100.00;149958.72;5093405;28;20222;-60
2023/04/01 06:29:44;;;;;;;15.50;7.83;;;;;;;15.45;100.00;149921.88;5093666;28;20731;-61
2023/04/01 06:32:31;;;;;;;11.67;7.37;;;;;;;15.49;100.00;149930.75;5093614;28;20676;-60
2023/04/01 06:35:38;;;;;;;8.27;6.37;;;;;;;15.52;100.00;149939.72;5093317;28;20249;-61
2023/04/01 06:38:29;;;;;;;15.13;6.73;;;;;;;15.45;100.00;149921.88;5067335;28;20759;-61
2023/04/01 06:41:29;;;;;;;7.87;5.17;;;;;;;15.38;100.00;149902.84;5093369;28;20219;-61
2023/04/01 06:44:06;;;;;;;10.37;6.63;;;;;;;15.28;100.00;149877.44;5077251;28;20242;-61
2023/04/01 06:46:45;;;;;;;9.77;7.63;;;;;;;15.31;100.00;149885.09;5093343;28;20279;-60
2023/04/01 06:49:45;;;;;;;13.10;8.70;;;;;;;15.45;100.00;149920.59;5093327;28;20188;-60
2023/04/01 06:52:24;;;;;;;15.33;8.50;;;;;;;15.72;100.00;149987.91;5093270;28;20639;-60
2023/04/01 06:55:01;;;;;;;8.97;6.10;;;;;;;15.79;100.00;150006.94;5093023;28;20183;-61
2023/04/01 06:57:33;;;;;;;15.97;7.23;;;;;;;16.23;100.00;150117.41;5093085;28;20245;-61
2023/04/01 07:00:04;;;;;;;19.27;8.33;;;;;;;16.55;100.00;150196.13;5092842;28;20218;-61
2023/04/01 07:02:40;;;;;;;71.30;23.17;;;;;;;16.60;100.00;150210.13;5093223;28;20565;-60
2023/04/01 07:05:10;;;;;;;77.20;30.47;;;;;;;16.39;100.00;150156.72;5092782;28;20184;-60
2023/04/01 07:07:42;;;;;;;88.57;33.87;;;;;;;15.91;100.00;150036.16;5093195;28;20176;-61
2023/04/01 07:10:18;;;;;;;83.10;36.90;;;;;;;15.89;100.00;150031.06;5093088;28;20730;-61
2023/04/01 07:12:50;;;;;;;123.53;38.37;;;;;;;16.20;100.00;150108.50;5093128;28;20623;-61
2023/04/01 07:15:21;;;;;;;95.73;35.87;;;;;;;16.41;100.00;150163.13;5092826;28;20187;-61
2023/04/01 07:17:53;;;;;;;79.73;33.77;;;;;;;16.54;100.00;150194.84;5092481;28;20266;-63
2023/04/01 07:20:27;;;;;;;80.83;32.93;;;;;;;16.41;100.00;150161.84;5092868;28;20191;-60
2023/04/01 07:22:57;;;;;;;75.33;32.20;;;;;;;16.59;100.00;150206.34;5092475;28;20183;-60
2023/04/01 07:25:30;;;;;;;50.00;22.90;;;;;;;16.84;100.00;150271.13;5092801;28;20540;-62
2023/04/01 07:28:02;;;;;;;36.80;18.83;;;;;;;16.15;100.00;150095.81;5092572;28;20179;-61
2023/04/01 07:30:43;;;;;;;50.20;21.23;;;;;;;16.26;100.00;150123.72;5092655;28;20563;-60
2023/04/01 07:33:17;;;;;;;41.80;22.30;;;;;;;16.40;100.00;150159.28;5092542;28;20613;-61
2023/04/01 07:35:53;;;;;;;35.13;18.23;;;;;;;16.54;100.00;150193.59;5091235;28;20613;-60
2023/04/01 07:38:34;;;;;;;23.77;13.13;;;;;;;16.62;100.00;150213.94;5092131;28;20207;-62
2023/04/01 07:41:10;;;;;;;19.60;8.80;;;;;;;16.63;100.00;150216.50;5092377;28;20643;-61
2023/04/01 07:43:52;;;;;;;17.07;6.50;;;;;;;16.65;100.00;150222.81;5092353;28;20184;-60
2023/04/01 07:46:32;;;;;;;6.93;5.80;;;;;;;15.92;100.00;150039.94;5092273;28;20720;-61
2023/04/01 07:49:05;;;;;;;9.20;5.40;;;;;;;15.80;100.00;150009.50;5092329;28;20256;-59
2023/04/01 07:51:39;;;;;;;9.87;5.70;;;;;;;15.46;100.00;149924.41;5092520;28;20183;-61
2023/04/01 07:54:14;;;;;;;8.67;6.23;;;;;;;15.86;100.00;150024.75;5091691;28;20214;-60
2023/04/01 07:56:50;;;;;;;10.23;5.90;;;;;;;16.03;100.00;150065.34;5091886;28;20229;-60
2023/04/01 07:59:23;;;;;;;13.63;5.73;;;;;;;15.88;100.00;150028.50;5092393;28;20578;-60
2023/04/01 08:02:00;;;;;;;8.93;5.33;;;;;;;15.71;100.00;149986.63;5092164;28;20705;-61
2023/04/01 08:04:42;;;;;;;8.33;5.80;;;;;;;15.63;100.00;149965.06;5091795;28;20183;-60
2023/04/01 08:07:14;;;;;;;6.57;5.63;;;;;;;16.00;100.00;150060.25;5091731;28;20198;-61
2023/04/01 08:09:52;;;;;;;10.60;5.20;;;;;;;16.33;100.00;150141.53;5092253;28;20707;-60
2023/04/01 08:12:33;;;;;;;12.60;5.70;;;;;;;16.69;100.00;150233.00;5090573;28;20346;-61
2023/04/01 08:15:12;;;;;;;5.30;4.83;;;;;;;16.41;100.00;150163.13;5091971;28;20591;-60
2023/04/01 08:17:48;;;;;;;11.10;5.50;;;;;;;16.73;100.00;150243.16;5091819;28;20195;-60
2023/04/01 08:20:27;;;;;;;9.30;5.47;;;;;;;16.89;100.00;150282.50;5090540;28;20278;-61
2023/04/01 08:23:00;;;;;;;6.33;5.13;;;;;;;17.13;100.00;150343.50;5090915;28;20290;-60
2023/04/01 08:25:31;;;;;;;5.43;4.90;;;;;;;17.65;100.00;150474.41;5091863;28;20554;-61
2023/04/01 08:28:04;;;;;;;8.20;5.27;;;;;;;17.57;100.00;150454.03;5091922;28;20187;-60
2023/04/01 08:30:40;;;;;;;11.27;5.00;;;;;;;17.53;100.00;150442.59;5091543;28;20226;-61
2023/04/01 08:33:13;;;;;;;5.27;4.77;;;;;;;17.58;100.00;150456.63;5091495;28;20191;-62
2023/04/01 08:35:47;;;;;;;9.03;4.47;;;;;;;17.78;100.00;150507.47;5091750;28;20241;-61
2023/04/01 08:38:19;;;;;;;17.20;5.57;;;;;;;18.05;100.00;150573.56;5091437;28;20247;-61
2023/04/01 08:41:35;;;;;;;11.17;4.80;;;;;;;18.83;100.00;150769.47;5091451;28;20181;-61
2023/04/01 08:44:49;;;;;;;12.70;5.43;;;;;;;19.14;100.00;150848.31;5077869;28;20543;-62
2023/04/01 08:47:43;;;;;;;8.23;5.33;;;;;;;19.44;100.00;150923.44;5028548;28;20683;-61
2023/04/01 08:50:32;;;;;;;13.33;4.90;;;;;;;19.70;100.00;150989.63;5091414;28;20266;-61
2023/04/01 08:53:07;;;;;;;10.83;5.03;;;;;;;19.33;100.00;150896.69;5091339;28;20292;-62
2023/04/01 08:55:44;;;;;;;12.83;4.63;;;;;;;19.45;100.00;150927.28;5091335;28;20187;-62
2023/04/01 08:58:40;;;;;;;5.50;4.13;;;;;;;19.81;100.00;151017.66;5091119;28;20294;-62
2023/04/01 09:01:22;;;;;;;11.13;4.97;;;;;;;20.29;100.00;151138.63;5091161;28;20184;-62
2023/04/01 09:04:23;;;;;;;5.63;5.27;;;;;;;20.19;100.00;151113.13;5091318;28;20302;-63
2023/04/01 09:07:00;;;;;;;8.97;4.73;;;;;;;20.37;100.00;151159.00;5094421;28;20275;-62
2023/04/01 09:09:52;;;;;;;9.63;4.27;;;;;;;20.39;100.00;151164.09;5093927;28;20275;-63
2023/04/01 09:12:42;;;;;;;9.97;4.87;;;;;;;20.35;100.00;151153.91;5094896;28;20868;-62
2023/04/01 09:15:28;;;;;;;12.87;5.00;;;;;;;20.31;100.00;151142.47;5095324;28;20241;-62
2023/04/01 09:18:33;;;;;;;6.83;4.60;;;;;;;20.27;100.00;151133.50;5095013;28;20282;-62
2023/04/01 09:21:20;;;;;;;14.10;5.70;;;;;;;20.20;100.00;151115.66;5069118;28;20891;-62
2023/04/01 09:24:36;;;;;;;10.35;5.45;;;;;;;20.00;100.00;151064.72;5094972;28;20229;-62
2023/04/01 09:27:06;;;;;;;8.57;5.90;;;;;;;19.96;100.00;151054.56;5032564;28;20671;-62
2023/04/01 09:29:55;;;;;;;14.87;5.80;;;;;;;19.86;100.00;151030.34;5081204;28;20238;-62
2023/04/01 09:32:43;;;;;;;16.23;5.93;;;;;;;19.86;100.00;151029.13;5094824;28;20192;-62
2023/04/01 09:35:38;;;;;;;14.27;6.10;;;;;;;19.88;100.00;151034.19;5095356;28;20188;-62
2023/04/01 09:38:22;;;;;;;5.63;4.87;;;;;;;19.77;100.00;151006.19;5095252;28;20633;-62
2023/04/01 09:40:56;;;;;;;5.53;5.03;;;;;;;19.81;100.00;151016.38;5095410;28;20276;-62
2023/04/01 09:43:29;;;;;;;12.38;5.30;;;;;;;19.73;100.00;150996.03;5095679;28;20183;-62
2023/04/01 09:46:10;;;;;;;5.43;4.83;;;;;;;19.86;100.00;151029.13;5096266;28;20196;-63
2023/04/01 09:48:51;;;;;;;39.20;8.43;;;;;;;19.84;100.00;151025.28;5095563;28;20719;-61
2023/04/01 09:51:31;;;;;;;4.00;3.60;;;;;;;19.85;100.00;151026.56;5094532;28;20633;-62
2023/04/01 09:54:15;;;;;;;7.77;4.50;;;;;;;20.03;100.00;151072.34;5095911;28;20215;-63
2023/04/01 09:57:23;;;;;;;7.17;3.83;;;;;;;20.37;100.00;151159.00;5095271;28;20656;-62
2023/04/01 10:00:28;;;;;;;4.83;4.03;;;;;;;20.67;100.00;151234.13;5094892;28;20685;-62
2023/04/01 10:03:38;;;;;;;4.25;3.75;;;;;;;20.94;100.00;151301.66;5093280;28;20196;-63
2023/04/01 10:06:46;;;;;;;5.13;3.65;;;;;;;21.11;100.00;151344.97;5094733;28;20188;-62
2023/04/01 10:09:43;;;;;;;4.50;3.95;;;;;;;20.77;100.00;151259.63;5094536;28;20603;-63
2023/04/01 10:12:42;;;;;;;7.53;5.20;;;;;;;20.91;100.00;151294.03;5094003;28;20232;-61
2023/04/01 10:15:30;;;;;;;8.32;4.72;;;;;;;20.70;100.00;151240.53;5094109;28;20192;-62
2023/04/01 10:18:29;;;;;;;16.85;7.63;;;;;;;20.40;100.00;151165.38;5094028;28;20615;-62
2023/04/01 10:21:32;;;;;;;18.33;7.30;;;;;;;20.10;100.00;151090.22;5088638;28;20238;-61
2023/04/01 10:24:34;;;;;;;26.80;7.33;;;;;;;19.92;100.00;151044.38;5091277;28;20234;-62
2023/04/01 10:27:34;;;;;;;20.73;7.80;;;;;;;20.08;100.00;151085.09;5093819;28;20184;-62
2023/04/01 10:30:46;;;;;;;21.30;7.37;;;;;;;20.15;100.00;151102.94;5093852;28;20681;-63
2023/04/01 10:33:40;;;;;;;21.10;7.87;;;;;;;19.99;100.00;151063.47;5093826;28;20257;-62
2023/04/01 10:36:46;;;;;;;38.77;9.70;;;;;;;20.06;100.00;151081.31;5093708;28;20210;-62
2023/04/01 10:39:56;;;;;;;49.97;10.15;;;;;;;20.15;100.00;151102.94;5093437;28;20298;-62
2023/04/01 10:43:01;;;;;;;32.15;8.48;;;;;;;20.04;100.00;151076.19;5093499;28;20630;-62
2023/04/01 10:46:19;;;;;;;29.40;8.10;;;;;;;19.98;100.00;151059.66;5093222;28;20195;-62
2023/04/01 10:49:17;;;;;;;22.20;9.10;;;;;;;19.92;100.00;151044.38;5093529;28;20287;-62
2023/04/01 10:52:29;;;;;;;44.37;8.17;;;;;;;20.12;100.00;151095.28;5093424;28;20224;-62
2023/04/01 10:55:12;;;;;;;14.30;6.60;;;;;;;20.23;100.00;151122.03;5093482;28;20654;-62
2023/04/01 10:58:05;;;;;;;26.60;8.00;;;;;;;20.32;100.00;151145.03;5093209;28;20204;-62
2023/04/01 11:01:00;;;;;;;21.57;7.87;;;;;;;20.34;100.00;151151.38;5092689;28;20277;-62
2023/04/01 11:04:25;;;;;;;17.70;8.07;;;;;;;20.48;100.00;151187.03;5036198;28;20204;-62
2023/04/01 11:07:23;;;;;;;17.90;7.20;;;;;;;20.50;100.00;151192.09;5092840;28;20260;-62
2023/04/01 11:10:26;;;;;;;19.40;8.43;;;;;;;20.54;100.00;151199.78;5093051;28;20180;-62
2023/04/01 11:13:34;;;;;;;21.83;12.57;;;;;;;20.22;100.00;151119.50;5092973;28;20184;-62
2023/04/01 11:16:43;;;;;;;27.37;11.77;;;;;;;20.19;100.00;151111.84;5092671;28;20274;-63
2023/04/01 11:19:55;;;;;;;16.63;9.37;;;;;;;20.04;100.00;151074.91;5092610;28;20223;-63
2023/04/01 11:22:41;;;;;;;19.20;9.07;;;;;;;19.80;100.00;151013.81;5064319;28;20200;-61
2023/04/01 11:25:26;;;;;;;15.63;9.40;;;;;;;19.73;100.00;150996.03;5092785;28;20601;-62
2023/04/01 11:28:41;;;;;;;20.07;9.37;;;;;;;19.66;100.00;150978.16;5091748;28;20188;-62
2023/04/01 11:31:38;;;;;;;16.17;9.67;;;;;;;19.74;100.00;150998.53;5030535;28;20260;-62
2023/04/01 11:34:17;;;;;;;20.10;10.23;;;;;;;19.65;100.00;150976.88;5091233;28;20641;-62
2023/04/01 11:37:00;;;;;;;15.97;10.63;;;;;;;19.33;100.00;150895.41;5092292;28;20230;-61
2023/04/01 11:39:37;;;;;;;27.50;10.50;;;;;;;19.06;100.00;150829.25;5092152;28;20208;-62
2023/04/01 11:42:16;;;;;;;15.40;9.20;;;;;;;19.01;100.00;150816.50;5092301;28;20205;-61
2023/04/01 11:44:58;;;;;;;18.53;8.60;;;;;;;18.46;100.00;150677.81;5092193;28;20180;-62
2023/04/01 11:47:57;;;;;;;12.93;8.53;;;;;;;18.56;100.00;150702.03;5092065;28;20267;-61
2023/04/01 11:50:37;;;;;;;12.57;7.77;;;;;;;18.79;100.00;150759.28;5080426;28;20227;-62
2023/04/01 11:53:23;;;;;;;11.67;7.37;;;;;;;18.84;100.00;150772.03;5092047;28;20215;-62
2023/04/01 11:56:12;;;;;;;12.90;7.17;;;;;;;18.66;100.00;150728.78;5092339;28;20714;-62
2023/04/01 11:59:22;;;;;;;7.47;6.63;;;;;;;18.76;100.00;150751.63;5092203;28;20759;-62